sensor_id;sensor_type;location;lat;lon;timestamp;temperature;humidity
52016;DHT22;38032;53.326;6.472;2022-12-08T00:01:50;4.60;99.90
52016;DHT22;38032;53.326;6.472;2022-12-08T00:04:16;4.60;99.90
52016;DHT22;38032;53.326;6.472;2022-12-08T00:06:42;4.60;99.90
52016;DHT22;38032;53.326;6.472;2022-12-08T00:09:39;4.60;99.90
52016;DHT22;38032;53.326;6.472;2022-12-08T00:12:07;4.60;99.90
52016;DHT22;38032;53.326;6.472;2022-12-08T00:14:36;4.60;99.90
52016;DHT22;38032;53.326;6.472;2022-12-08T00:17:03;4.70;99.90
52016;DHT22;38032;53.326;6.472;2022-12-08T00:19:29;4.70;99.90
52016;DHT22;38032;53.326;6.472;2022-12-08T00:21:56;4.70;99.90
52016;DHT22;38032;53.326;6.472;2022-12-08T00:24:23;4.70;99.90
52016;DHT22;38032;53.326;6.472;2022-12-08T00:26:50;4.70;99.90
52016;DHT22;38032;53.326;6.472;2022-12-08T00:29:17;4.70;99.90
52016;DHT22;38032;53.326;6.472;2022-12-08T00:31:43;4.70;99.90
52016;DHT22;38032;53.326;6.472;2022-12-08T00:34:09;4.70;99.90
52016;DHT22;38032;53.326;6.472;2022-12-08T00:36:36;4.80;99.90
52016;DHT22;38032;53.326;6.472;2022-12-08T00:39:02;4.80;99.90
52016;DHT22;38032;53.326;6.472;2022-12-08T00:41:28;4.80;99.90
52016;DHT22;38032;53.326;6.472;2022-12-08T00:44:15;4.80;99.90
52016;DHT22;38032;53.326;6.472;2022-12-08T00:46:43;4.90;99.90
52016;DHT22;38032;53.326;6.472;2022-12-08T00:49:09;4.90;99.90
52016;DHT22;38032;53.326;6.472;2022-12-08T00:51:35;4.90;99.90
52016;DHT22;38032;53.326;6.472;2022-12-08T00:54:02;4.90;99.90
52016;DHT22;38032;53.326;6.472;2022-12-08T00:56:28;4.80;99.90
52016;DHT22;38032;53.326;6.472;2022-12-08T00:58:54;4.70;99.90
52016;DHT22;38032;53.326;6.472;2022-12-08T01:01:20;4.70;99.90
52016;DHT22;38032;53.326;6.472;2022-12-08T01:03:46;4.60;99.90
52016;DHT22;38032;53.326;6.472;2022-12-08T01:06:12;4.60;99.90
52016;DHT22;38032;53.326;6.472;2022-12-08T01:08:39;4.60;99.90
52016;DHT22;38032;53.326;6.472;2022-12-08T01:11:08;4.60;99.90
52016;DHT22;38032;53.326;6.472;2022-12-08T01:13:34;4.60;99.90
52016;DHT22;38032;53.326;6.472;2022-12-08T01:16:00;4.60;99.90
52016;DHT22;38032;53.326;6.472;2022-12-08T01:18:27;4.60;99.90
52016;DHT22;38032;53.326;6.472;2022-12-08T01:20:53;4.60;99.90
52016;DHT22;38032;53.326;6.472;2022-12-08T01:23:20;4.60;99.90
52016;DHT22;38032;53.326;6.472;2022-12-08T01:25:46;4.60;99.90
52016;DHT22;38032;53.326;6.472;2022-12-08T01:28:12;4.70;99.90
52016;DHT22;38032;53.326;6.472;2022-12-08T01:30:38;4.80;99.90
52016;DHT22;38032;53.326;6.472;2022-12-08T01:33:04;4.80;99.90
52016;DHT22;38032;53.326;6.472;2022-12-08T01:35:30;4.90;99.90
52016;DHT22;38032;53.326;6.472;2022-12-08T01:37:58;5.00;99.90
52016;DHT22;38032;53.326;6.472;2022-12-08T01:40:24;5.00;99.90
52016;DHT22;38032;53.326;6.472;2022-12-08T01:42:50;5.10;99.90
52016;DHT22;38032;53.326;6.472;2022-12-08T01:45:24;5.20;99.90
52016;DHT22;38032;53.326;6.472;2022-12-08T01:47:55;5.10;99.90
52016;DHT22;38032;53.326;6.472;2022-12-08T01:50:22;5.20;99.90
52016;DHT22;38032;53.326;6.472;2022-12-08T01:52:52;5.10;99.90
52016;DHT22;38032;53.326;6.472;2022-12-08T01:55:25;5.10;99.90
52016;DHT22;38032;53.326;6.472;2022-12-08T01:57:55;5.00;99.90
52016;DHT22;38032;53.326;6.472;2022-12-08T02:00:22;5.00;99.90
52016;DHT22;38032;53.326;6.472;2022-12-08T02:02:54;4.90;99.90
52016;DHT22;38032;53.326;6.472;2022-12-08T02:05:26;4.90;99.90
52016;DHT22;38032;53.326;6.472;2022-12-08T02:07:53;4.90;99.90
52016;DHT22;38032;53.326;6.472;2022-12-08T02:10:22;4.90;99.90
52016;DHT22;38032;53.326;6.472;2022-12-08T02:12:50;4.90;99.90
52016;DHT22;38032;53.326;6.472;2022-12-08T02:15:16;4.80;99.90
52016;DHT22;38032;53.326;6.472;2022-12-08T02:17:47;4.80;99.90
52016;DHT22;38032;53.326;6.472;2022-12-08T02:25:30;4.90;99.90
52016;DHT22;38032;53.326;6.472;2022-12-08T02:28:02;4.80;99.90
52016;DHT22;38032;53.326;6.472;2022-12-08T02:30:47;4.80;99.90
52016;DHT22;38032;53.326;6.472;2022-12-08T02:36:25;4.80;99.90
52016;DHT22;38032;53.326;6.472;2022-12-08T02:39:09;4.90;99.90
52016;DHT22;38032;53.326;6.472;2022-12-08T02:41:55;4.90;99.90
52016;DHT22;38032;53.326;6.472;2022-12-08T02:44:40;4.90;99.90
52016;DHT22;38032;53.326;6.472;2022-12-08T02:47:11;4.90;99.90
52016;DHT22;38032;53.326;6.472;2022-12-08T02:49:38;4.80;99.90
52016;DHT22;38032;53.326;6.472;2022-12-08T02:52:05;4.80;99.90
52016;DHT22;38032;53.326;6.472;2022-12-08T02:54:32;4.70;99.90
52016;DHT22;38032;53.326;6.472;2022-12-08T02:57:12;4.70;99.90
52016;DHT22;38032;53.326;6.472;2022-12-08T02:59:45;4.70;99.90
52016;DHT22;38032;53.326;6.472;2022-12-08T03:02:29;4.70;99.90
52016;DHT22;38032;53.326;6.472;2022-12-08T03:05:07;4.70;99.90
52016;DHT22;38032;53.326;6.472;2022-12-08T03:08:02;4.70;99.90
52016;DHT22;38032;53.326;6.472;2022-12-08T03:10:35;4.60;99.90
52016;DHT22;38032;53.326;6.472;2022-12-08T03:13:12;4.60;99.90
52016;DHT22;38032;53.326;6.472;2022-12-08T03:15:40;4.50;99.90
52016;DHT22;38032;53.326;6.472;2022-12-08T03:18:09;4.50;99.90
52016;DHT22;38032;53.326;6.472;2022-12-08T03:20:37;4.50;99.90
52016;DHT22;38032;53.326;6.472;2022-12-08T03:23:08;4.50;99.90
52016;DHT22;38032;53.326;6.472;2022-12-08T03:25:42;4.40;99.90
52016;DHT22;38032;53.326;6.472;2022-12-08T03:28:11;4.40;99.90
52016;DHT22;38032;53.326;6.472;2022-12-08T03:30:39;4.40;99.90
52016;DHT22;38032;53.326;6.472;2022-12-08T03:33:14;4.40;99.90
52016;DHT22;38032;53.326;6.472;2022-12-08T03:35:42;4.30;99.90
52016;DHT22;38032;53.326;6.472;2022-12-08T03:38:12;4.30;99.90
52016;DHT22;38032;53.326;6.472;2022-12-08T03:40:39;4.30;99.90
52016;DHT22;38032;53.326;6.472;2022-12-08T03:43:06;4.30;99.90
52016;DHT22;38032;53.326;6.472;2022-12-08T03:45:32;4.40;99.90
52016;DHT22;38032;53.326;6.472;2022-12-08T03:47:58;4.40;99.90
52016;DHT22;38032;53.326;6.472;2022-12-08T03:50:24;4.40;99.90
52016;DHT22;38032;53.326;6.472;2022-12-08T03:52:50;4.40;99.90
52016;DHT22;38032;53.326;6.472;2022-12-08T03:55:16;4.50;99.90
52016;DHT22;38032;53.326;6.472;2022-12-08T03:57:42;4.50;99.90
52016;DHT22;38032;53.326;6.472;2022-12-08T04:00:12;4.50;99.90
52016;DHT22;38032;53.326;6.472;2022-12-08T04:02:38;4.50;99.90
52016;DHT22;38032;53.326;6.472;2022-12-08T04:05:04;4.60;99.90
52016;DHT22;38032;53.326;6.472;2022-12-08T04:07:30;4.60;99.90
52016;DHT22;38032;53.326;6.472;2022-12-08T04:09:56;4.60;99.90
52016;DHT22;38032;53.326;6.472;2022-12-08T04:12:22;4.60;99.90
52016;DHT22;38032;53.326;6.472;2022-12-08T04:14:48;4.60;99.90
52016;DHT22;38032;53.326;6.472;2022-12-08T04:17:14;4.60;99.90
52016;DHT22;38032;53.326;6.472;2022-12-08T04:19:39;4.70;99.90
52016;DHT22;38032;53.326;6.472;2022-12-08T04:22:06;4.70;99.90
52016;DHT22;38032;53.326;6.472;2022-12-08T04:24:32;4.70;99.90
52016;DHT22;38032;53.326;6.472;2022-12-08T04:26:58;4.70;99.90
52016;DHT22;38032;53.326;6.472;2022-12-08T04:29:23;4.70;99.90
52016;DHT22;38032;53.326;6.472;2022-12-08T04:31:49;4.70;99.90
52016;DHT22;38032;53.326;6.472;2022-12-08T04:34:15;4.70;99.90
52016;DHT22;38032;53.326;6.472;2022-12-08T04:36:41;4.80;99.90
52016;DHT22;38032;53.326;6.472;2022-12-08T04:39:07;4.70;99.90
52016;DHT22;38032;53.326;6.472;2022-12-08T04:41:33;4.70;99.90
52016;DHT22;38032;53.326;6.472;2022-12-08T04:43:59;4.70;99.90
52016;DHT22;38032;53.326;6.472;2022-12-08T04:46:24;4.70;99.90
52016;DHT22;38032;53.326;6.472;2022-12-08T04:48:50;4.60;99.90
52016;DHT22;38032;53.326;6.472;2022-12-08T04:51:18;4.60;99.90
52016;DHT22;38032;53.326;6.472;2022-12-08T04:53:44;4.60;99.90
52016;DHT22;38032;53.326;6.472;2022-12-08T04:56:15;4.60;99.90
52016;DHT22;38032;53.326;6.472;2022-12-08T04:58:41;4.60;99.90
52016;DHT22;38032;53.326;6.472;2022-12-08T05:01:07;4.60;99.90
52016;DHT22;38032;53.326;6.472;2022-12-08T05:03:33;4.60;99.90
52016;DHT22;38032;53.326;6.472;2022-12-08T05:05:59;4.60;99.90
52016;DHT22;38032;53.326;6.472;2022-12-08T05:08:25;4.50;99.90
52016;DHT22;38032;53.326;6.472;2022-12-08T05:10:52;4.50;99.90
52016;DHT22;38032;53.326;6.472;2022-12-08T05:13:17;4.50;99.90
52016;DHT22;38032;53.326;6.472;2022-12-08T05:15:43;4.50;99.90
52016;DHT22;38032;53.326;6.472;2022-12-08T05:18:09;4.40;99.90
52016;DHT22;38032;53.326;6.472;2022-12-08T05:20:35;4.40;99.90
52016;DHT22;38032;53.326;6.472;2022-12-08T05:23:01;4.40;99.90
52016;DHT22;38032;53.326;6.472;2022-12-08T05:25:27;4.40;99.90
52016;DHT22;38032;53.326;6.472;2022-12-08T05:27:53;4.40;99.90
52016;DHT22;38032;53.326;6.472;2022-12-08T05:30:19;4.40;99.90
52016;DHT22;38032;53.326;6.472;2022-12-08T05:32:45;4.50;99.90
52016;DHT22;38032;53.326;6.472;2022-12-08T05:35:11;4.50;99.90
52016;DHT22;38032;53.326;6.472;2022-12-08T05:37:37;4.50;99.90
52016;DHT22;38032;53.326;6.472;2022-12-08T05:40:03;4.60;99.90
52016;DHT22;38032;53.326;6.472;2022-12-08T05:42:29;4.60;99.90
52016;DHT22;38032;53.326;6.472;2022-12-08T05:44:55;4.60;99.90
52016;DHT22;38032;53.326;6.472;2022-12-08T05:47:21;4.60;99.90
52016;DHT22;38032;53.326;6.472;2022-12-08T05:49:47;4.60;99.90
52016;DHT22;38032;53.326;6.472;2022-12-08T05:52:13;4.60;99.90
52016;DHT22;38032;53.326;6.472;2022-12-08T05:54:38;4.60;99.90
52016;DHT22;38032;53.326;6.472;2022-12-08T05:57:04;4.60;99.90
52016;DHT22;38032;53.326;6.472;2022-12-08T05:59:30;4.60;99.90
52016;DHT22;38032;53.326;6.472;2022-12-08T06:01:56;4.60;99.90
52016;DHT22;38032;53.326;6.472;2022-12-08T06:04:22;4.60;99.90
52016;DHT22;38032;53.326;6.472;2022-12-08T06:06:48;4.50;99.90
52016;DHT22;38032;53.326;6.472;2022-12-08T06:09:14;4.50;99.90
52016;DHT22;38032;53.326;6.472;2022-12-08T06:11:40;4.50;99.90
52016;DHT22;38032;53.326;6.472;2022-12-08T06:14:10;4.50;99.90
52016;DHT22;38032;53.326;6.472;2022-12-08T06:16:36;4.40;99.90
52016;DHT22;38032;53.326;6.472;2022-12-08T06:19:02;4.50;99.90
52016;DHT22;38032;53.326;6.472;2022-12-08T06:21:28;4.50;99.90
52016;DHT22;38032;53.326;6.472;2022-12-08T06:23:54;4.50;99.90
52016;DHT22;38032;53.326;6.472;2022-12-08T06:26:20;4.50;99.90
52016;DHT22;38032;53.326;6.472;2022-12-08T06:28:47;4.50;99.90
52016;DHT22;38032;53.326;6.472;2022-12-08T06:31:17;4.50;99.90
52016;DHT22;38032;53.326;6.472;2022-12-08T06:33:44;4.50;99.90
52016;DHT22;38032;53.326;6.472;2022-12-08T06:36:12;4.50;99.90
52016;DHT22;38032;53.326;6.472;2022-12-08T06:38:38;4.40;99.90
52016;DHT22;38032;53.326;6.472;2022-12-08T06:41:05;4.40;99.90
52016;DHT22;38032;53.326;6.472;2022-12-08T06:43:31;4.40;99.90
52016;DHT22;38032;53.326;6.472;2022-12-08T06:45:58;4.30;99.90
52016;DHT22;38032;53.326;6.472;2022-12-08T06:48:24;4.30;99.90
52016;DHT22;38032;53.326;6.472;2022-12-08T06:50:50;4.20;99.90
52016;DHT22;38032;53.326;6.472;2022-12-08T06:53:16;4.20;99.90
52016;DHT22;38032;53.326;6.472;2022-12-08T06:55:45;4.10;99.90
52016;DHT22;38032;53.326;6.472;2022-12-08T06:58:12;4.10;99.90
52016;DHT22;38032;53.326;6.472;2022-12-08T07:00:39;4.10;99.90
52016;DHT22;38032;53.326;6.472;2022-12-08T07:03:06;4.10;99.90
52016;DHT22;38032;53.326;6.472;2022-12-08T07:05:33;4.00;99.90
52016;DHT22;38032;53.326;6.472;2022-12-08T07:07:59;4.00;99.90
52016;DHT22;38032;53.326;6.472;2022-12-08T07:10:25;3.90;99.90
52016;DHT22;38032;53.326;6.472;2022-12-08T07:12:51;3.80;99.90
52016;DHT22;38032;53.326;6.472;2022-12-08T07:15:17;3.80;99.90
52016;DHT22;38032;53.326;6.472;2022-12-08T07:17:43;3.70;99.90
52016;DHT22;38032;53.326;6.472;2022-12-08T07:20:09;3.50;99.90
52016;DHT22;38032;53.326;6.472;2022-12-08T07:22:35;3.50;99.90
52016;DHT22;38032;53.326;6.472;2022-12-08T07:25:01;3.40;99.90
52016;DHT22;38032;53.326;6.472;2022-12-08T07:27:27;3.30;99.90
52016;DHT22;38032;53.326;6.472;2022-12-08T07:29:53;3.20;99.90
52016;DHT22;38032;53.326;6.472;2022-12-08T07:32:19;3.10;99.90
52016;DHT22;38032;53.326;6.472;2022-12-08T07:34:45;3.10;99.90
52016;DHT22;38032;53.326;6.472;2022-12-08T07:37:11;3.00;99.90
52016;DHT22;38032;53.326;6.472;2022-12-08T07:39:36;3.00;99.90
52016;DHT22;38032;53.326;6.472;2022-12-08T07:42:02;3.00;99.90
52016;DHT22;38032;53.326;6.472;2022-12-08T07:44:28;3.00;99.90
52016;DHT22;38032;53.326;6.472;2022-12-08T07:46:54;3.00;99.90
52016;DHT22;38032;53.326;6.472;2022-12-08T07:49:20;3.00;99.90
52016;DHT22;38032;53.326;6.472;2022-12-08T07:51:46;3.00;99.90
52016;DHT22;38032;53.326;6.472;2022-12-08T07:54:12;3.00;99.90
52016;DHT22;38032;53.326;6.472;2022-12-08T07:56:38;3.00;99.90
52016;DHT22;38032;53.326;6.472;2022-12-08T07:59:04;3.00;99.90
52016;DHT22;38032;53.326;6.472;2022-12-08T08:01:31;3.00;99.90
52016;DHT22;38032;53.326;6.472;2022-12-08T08:04:00;3.00;99.90
52016;DHT22;38032;53.326;6.472;2022-12-08T08:06:27;3.00;99.90
52016;DHT22;38032;53.326;6.472;2022-12-08T08:08:53;3.00;99.90
52016;DHT22;38032;53.326;6.472;2022-12-08T08:11:19;3.00;99.90
52016;DHT22;38032;53.326;6.472;2022-12-08T08:13:45;3.10;99.90
52016;DHT22;38032;53.326;6.472;2022-12-08T08:16:11;3.10;99.90
52016;DHT22;38032;53.326;6.472;2022-12-08T08:18:38;3.10;99.90
52016;DHT22;38032;53.326;6.472;2022-12-08T08:21:05;3.10;99.90
52016;DHT22;38032;53.326;6.472;2022-12-08T08:23:31;3.10;99.90
52016;DHT22;38032;53.326;6.472;2022-12-08T08:25:59;3.10;99.90
52016;DHT22;38032;53.326;6.472;2022-12-08T08:28:26;3.10;99.90
52016;DHT22;38032;53.326;6.472;2022-12-08T08:30:52;3.10;99.90
52016;DHT22;38032;53.326;6.472;2022-12-08T08:33:18;3.10;99.90
52016;DHT22;38032;53.326;6.472;2022-12-08T08:35:44;3.10;99.90
52016;DHT22;38032;53.326;6.472;2022-12-08T08:38:10;3.10;99.90
52016;DHT22;38032;53.326;6.472;2022-12-08T08:40:36;3.10;99.90
52016;DHT22;38032;53.326;6.472;2022-12-08T08:43:03;3.20;99.90
52016;DHT22;38032;53.326;6.472;2022-12-08T08:45:30;3.30;99.90
52016;DHT22;38032;53.326;6.472;2022-12-08T08:47:56;3.50;99.90
52016;DHT22;38032;53.326;6.472;2022-12-08T08:50:22;3.90;99.90
52016;DHT22;38032;53.326;6.472;2022-12-08T08:52:48;4.30;99.90
52016;DHT22;38032;53.326;6.472;2022-12-08T08:55:15;4.70;99.90
52016;DHT22;38032;53.326;6.472;2022-12-08T08:57:41;5.10;99.90
52016;DHT22;38032;53.326;6.472;2022-12-08T09:00:08;5.10;99.90
52016;DHT22;38032;53.326;6.472;2022-12-08T09:02:36;5.90;99.90
52016;DHT22;38032;53.326;6.472;2022-12-08T09:05:03;6.30;99.90
52016;DHT22;38032;53.326;6.472;2022-12-08T09:07:30;6.70;99.90
52016;DHT22;38032;53.326;6.472;2022-12-08T09:09:56;6.90;99.90
52016;DHT22;38032;53.326;6.472;2022-12-08T09:12:22;7.00;99.90
52016;DHT22;38032;53.326;6.472;2022-12-08T09:14:48;7.00;99.90
52016;DHT22;38032;53.326;6.472;2022-12-08T09:17:14;7.00;99.90
52016;DHT22;38032;53.326;6.472;2022-12-08T09:19:41;6.90;99.90
52016;DHT22;38032;53.326;6.472;2022-12-08T09:22:07;6.90;99.90
52016;DHT22;38032;53.326;6.472;2022-12-08T09:24:33;6.80;99.90
52016;DHT22;38032;53.326;6.472;2022-12-08T09:26:59;6.80;99.90
52016;DHT22;38032;53.326;6.472;2022-12-08T09:29:25;6.80;99.90
52016;DHT22;38032;53.326;6.472;2022-12-08T09:31:51;6.70;99.90
52016;DHT22;38032;53.326;6.472;2022-12-08T09:34:16;6.60;99.90
52016;DHT22;38032;53.326;6.472;2022-12-08T09:36:43;6.60;99.90
52016;DHT22;38032;53.326;6.472;2022-12-08T09:39:09;6.50;99.90
52016;DHT22;38032;53.326;6.472;2022-12-08T09:41:40;6.40;99.90
52016;DHT22;38032;53.326;6.472;2022-12-08T09:46:53;6.10;99.90
52016;DHT22;38032;53.326;6.472;2022-12-08T09:49:22;6.00;99.90
52016;DHT22;38032;53.326;6.472;2022-12-08T09:51:53;5.90;99.90
52016;DHT22;38032;53.326;6.472;2022-12-08T09:54:31;6.00;99.90
52016;DHT22;38032;53.326;6.472;2022-12-08T09:57:00;6.00;99.90
52016;DHT22;38032;53.326;6.472;2022-12-08T09:59:33;5.90;99.90
52016;DHT22;38032;53.326;6.472;2022-12-08T10:02:01;6.10;99.90
52016;DHT22;38032;53.326;6.472;2022-12-08T10:04:30;6.20;99.90
52016;DHT22;38032;53.326;6.472;2022-12-08T10:07:21;6.20;99.90
52016;DHT22;38032;53.326;6.472;2022-12-08T10:12:27;6.40;99.90
52016;DHT22;38032;53.326;6.472;2022-12-08T10:17:31;6.70;99.90
52016;DHT22;38032;53.326;6.472;2022-12-08T10:20:10;7.00;99.90
52016;DHT22;38032;53.326;6.472;2022-12-08T10:22:37;7.10;99.90
52016;DHT22;38032;53.326;6.472;2022-12-08T10:25:19;7.00;99.90
52016;DHT22;38032;53.326;6.472;2022-12-08T10:27:48;7.10;99.90
52016;DHT22;38032;53.326;6.472;2022-12-08T10:30:17;7.20;99.90
52016;DHT22;38032;53.326;6.472;2022-12-08T10:32:50;7.50;99.90
52016;DHT22;38032;53.326;6.472;2022-12-08T10:35:19;7.40;99.90
52016;DHT22;38032;53.326;6.472;2022-12-08T10:38:00;7.50;99.90
52016;DHT22;38032;53.326;6.472;2022-12-08T10:40:28;7.40;99.90
52016;DHT22;38032;53.326;6.472;2022-12-08T10:42:56;7.40;99.90
52016;DHT22;38032;53.326;6.472;2022-12-08T10:45:28;7.40;99.90
52016;DHT22;38032;53.326;6.472;2022-12-08T10:48:02;7.40;99.90
52016;DHT22;38032;53.326;6.472;2022-12-08T10:50:33;7.40;99.90
52016;DHT22;38032;53.326;6.472;2022-12-08T10:55:49;7.70;99.90
52016;DHT22;38032;53.326;6.472;2022-12-08T11:00:54;8.10;99.90
52016;DHT22;38032;53.326;6.472;2022-12-08T11:03:26;8.10;99.90
52016;DHT22;38032;53.326;6.472;2022-12-08T11:05:55;8.10;99.90
52016;DHT22;38032;53.326;6.472;2022-12-08T11:08:22;8.00;99.90
52016;DHT22;38032;53.326;6.472;2022-12-08T11:10:48;7.90;99.90
52016;DHT22;38032;53.326;6.472;2022-12-08T11:13:23;7.80;99.90
52016;DHT22;38032;53.326;6.472;2022-12-08T11:15:52;7.70;99.90
52016;DHT22;38032;53.326;6.472;2022-12-08T11:18:24;7.50;99.90
52016;DHT22;38032;53.326;6.472;2022-12-08T11:20:58;7.40;99.90
52016;DHT22;38032;53.326;6.472;2022-12-08T11:23:26;7.30;99.90
52016;DHT22;38032;53.326;6.472;2022-12-08T11:25:55;7.20;99.90
52016;DHT22;38032;53.326;6.472;2022-12-08T11:28:23;7.10;99.90
52016;DHT22;38032;53.326;6.472;2022-12-08T11:30:56;7.00;99.90
52016;DHT22;38032;53.326;6.472;2022-12-08T11:33:25;6.90;99.90
52016;DHT22;38032;53.326;6.472;2022-12-08T11:38:25;6.80;99.90
52016;DHT22;38032;53.326;6.472;2022-12-08T11:40:56;6.80;99.90
52016;DHT22;38032;53.326;6.472;2022-12-08T11:43:39;6.70;99.90
52016;DHT22;38032;53.326;6.472;2022-12-08T11:46:16;6.80;99.90
52016;DHT22;38032;53.326;6.472;2022-12-08T11:48:52;6.90;99.90
52016;DHT22;38032;53.326;6.472;2022-12-08T11:51:29;7.00;99.90
52016;DHT22;38032;53.326;6.472;2022-12-08T11:54:17;7.10;99.90
52016;DHT22;38032;53.326;6.472;2022-12-08T11:56:48;7.30;99.90
52016;DHT22;38032;53.326;6.472;2022-12-08T12:01:52;7.50;99.90
52016;DHT22;38032;53.326;6.472;2022-12-08T12:04:31;7.70;99.90
52016;DHT22;38032;53.326;6.472;2022-12-08T12:13:21;7.90;99.90
52016;DHT22;38032;53.326;6.472;2022-12-08T12:16:22;7.90;99.90
52016;DHT22;38032;53.326;6.472;2022-12-08T12:18:57;8.00;99.90
52016;DHT22;38032;53.326;6.472;2022-12-08T12:21:35;8.10;99.90
52016;DHT22;38032;53.326;6.472;2022-12-08T12:24:06;8.20;99.90
52016;DHT22;38032;53.326;6.472;2022-12-08T12:26:36;8.20;99.90
52016;DHT22;38032;53.326;6.472;2022-12-08T12:31:40;8.20;99.90
52016;DHT22;38032;53.326;6.472;2022-12-08T12:34:14;8.20;99.90
52016;DHT22;38032;53.326;6.472;2022-12-08T12:36:47;8.10;99.90
52016;DHT22;38032;53.326;6.472;2022-12-08T12:39:14;8.00;99.90
52016;DHT22;38032;53.326;6.472;2022-12-08T12:41:47;7.90;99.90
52016;DHT22;38032;53.326;6.472;2022-12-08T12:46:53;7.70;99.90
52016;DHT22;38032;53.326;6.472;2022-12-08T12:57:23;7.10;99.90
52016;DHT22;38032;53.326;6.472;2022-12-08T13:02:19;6.80;99.90
52016;DHT22;38032;53.326;6.472;2022-12-08T13:04:57;6.70;99.90
52016;DHT22;38032;53.326;6.472;2022-12-08T13:07:30;6.50;99.90
52016;DHT22;38032;53.326;6.472;2022-12-08T13:10:12;6.40;99.90
52016;DHT22;38032;53.326;6.472;2022-12-08T13:12:41;6.30;99.90
52016;DHT22;38032;53.326;6.472;2022-12-08T13:15:16;6.20;99.90
52016;DHT22;38032;53.326;6.472;2022-12-08T13:17:45;6.10;99.90
52016;DHT22;38032;53.326;6.472;2022-12-08T13:20:19;6.00;99.90
52016;DHT22;38032;53.326;6.472;2022-12-08T13:30:47;5.50;99.90
52016;DHT22;38032;53.326;6.472;2022-12-08T13:33:21;5.40;99.90
52016;DHT22;38032;53.326;6.472;2022-12-08T13:35:59;5.40;99.90
52016;DHT22;38032;53.326;6.472;2022-12-08T13:38:29;5.30;99.90
52016;DHT22;38032;53.326;6.472;2022-12-08T13:40:56;5.20;99.90
52016;DHT22;38032;53.326;6.472;2022-12-08T13:43:37;5.20;99.90
52016;DHT22;38032;53.326;6.472;2022-12-08T13:46:08;5.20;99.90
52016;DHT22;38032;53.326;6.472;2022-12-08T13:48:44;5.10;99.90
52016;DHT22;38032;53.326;6.472;2022-12-08T13:51:21;5.00;99.90
52016;DHT22;38032;53.326;6.472;2022-12-08T13:53:58;5.00;99.90
52016;DHT22;38032;53.326;6.472;2022-12-08T13:56:26;5.00;99.90
52016;DHT22;38032;53.326;6.472;2022-12-08T13:59:06;4.90;99.90
52016;DHT22;38032;53.326;6.472;2022-12-08T14:01:39;4.90;99.90
52016;DHT22;38032;53.326;6.472;2022-12-08T14:04:19;4.90;99.90
52016;DHT22;38032;53.326;6.472;2022-12-08T14:06:48;4.90;99.90
52016;DHT22;38032;53.326;6.472;2022-12-08T14:09:18;4.90;99.90
52016;DHT22;38032;53.326;6.472;2022-12-08T14:11:51;4.80;99.90
52016;DHT22;38032;53.326;6.472;2022-12-08T14:14:27;4.80;99.90
52016;DHT22;38032;53.326;6.472;2022-12-08T14:16:56;4.80;99.90
52016;DHT22;38032;53.326;6.472;2022-12-08T14:19:25;4.80;99.90
52016;DHT22;38032;53.326;6.472;2022-12-08T14:22:16;4.70;99.90
52016;DHT22;38032;53.326;6.472;2022-12-08T14:24:49;4.60;99.90
52016;DHT22;38032;53.326;6.472;2022-12-08T14:27:19;4.50;99.90
52016;DHT22;38032;53.326;6.472;2022-12-08T14:29:58;4.50;99.90
52016;DHT22;38032;53.326;6.472;2022-12-08T14:32:36;4.40;99.90
52016;DHT22;38032;53.326;6.472;2022-12-08T14:37:42;4.30;99.90
52016;DHT22;38032;53.326;6.472;2022-12-08T14:40:17;4.20;99.90
52016;DHT22;38032;53.326;6.472;2022-12-08T14:42:47;4.10;99.90
52016;DHT22;38032;53.326;6.472;2022-12-08T14:45:15;4.10;99.90
52016;DHT22;38032;53.326;6.472;2022-12-08T14:47:42;4.10;99.90
52016;DHT22;38032;53.326;6.472;2022-12-08T14:53:02;4.00;99.90
52016;DHT22;38032;53.326;6.472;2022-12-08T14:55:34;4.00;99.90
52016;DHT22;38032;53.326;6.472;2022-12-08T14:58:01;3.90;99.90
52016;DHT22;38032;53.326;6.472;2022-12-08T15:00:27;3.80;99.90
52016;DHT22;38032;53.326;6.472;2022-12-08T15:02:54;3.80;99.90
52016;DHT22;38032;53.326;6.472;2022-12-08T15:05:27;3.70;99.90
52016;DHT22;38032;53.326;6.472;2022-12-08T15:07:59;3.70;99.90
52016;DHT22;38032;53.326;6.472;2022-12-08T15:10:29;3.70;99.90
52016;DHT22;38032;53.326;6.472;2022-12-08T15:12:59;3.70;99.90
52016;DHT22;38032;53.326;6.472;2022-12-08T15:15:26;3.60;99.90
52016;DHT22;38032;53.326;6.472;2022-12-08T15:23:20;3.50;99.90
52016;DHT22;38032;53.326;6.472;2022-12-08T15:25:47;3.40;99.90
52016;DHT22;38032;53.326;6.472;2022-12-08T15:28:16;3.40;99.90
52016;DHT22;38032;53.326;6.472;2022-12-08T15:30:42;3.30;99.90
52016;DHT22;38032;53.326;6.472;2022-12-08T15:33:08;3.30;99.90
52016;DHT22;38032;53.326;6.472;2022-12-08T15:35:34;3.30;99.90
52016;DHT22;38032;53.326;6.472;2022-12-08T15:37:59;3.20;99.90
52016;DHT22;38032;53.326;6.472;2022-12-08T15:40:25;3.20;99.90
52016;DHT22;38032;53.326;6.472;2022-12-08T15:42:52;3.10;99.90
52016;DHT22;38032;53.326;6.472;2022-12-08T15:45:18;3.10;99.90
52016;DHT22;38032;53.326;6.472;2022-12-08T15:47:47;3.10;99.90
52016;DHT22;38032;53.326;6.472;2022-12-08T15:50:16;3.00;99.90
52016;DHT22;38032;53.326;6.472;2022-12-08T15:52:42;3.00;99.90
52016;DHT22;38032;53.326;6.472;2022-12-08T15:55:18;3.00;99.90
52016;DHT22;38032;53.326;6.472;2022-12-08T15:57:46;3.00;99.90
52016;DHT22;38032;53.326;6.472;2022-12-08T16:00:28;2.90;99.90
52016;DHT22;38032;53.326;6.472;2022-12-08T16:02:54;2.90;99.90
52016;DHT22;38032;53.326;6.472;2022-12-08T16:05:22;2.90;99.90
52016;DHT22;38032;53.326;6.472;2022-12-08T16:07:48;2.80;99.90
52016;DHT22;38032;53.326;6.472;2022-12-08T16:10:17;2.80;99.90
52016;DHT22;38032;53.326;6.472;2022-12-08T16:12:43;2.80;99.90
52016;DHT22;38032;53.326;6.472;2022-12-08T16:15:28;2.80;99.90
52016;DHT22;38032;53.326;6.472;2022-12-08T16:17:55;2.70;99.90
52016;DHT22;38032;53.326;6.472;2022-12-08T16:20:21;2.70;99.90
52016;DHT22;38032;53.326;6.472;2022-12-08T16:22:48;2.70;99.90
52016;DHT22;38032;53.326;6.472;2022-12-08T16:25:14;2.70;99.90
52016;DHT22;38032;53.326;6.472;2022-12-08T16:27:40;2.70;99.90
52016;DHT22;38032;53.326;6.472;2022-12-08T16:30:10;2.70;99.90
52016;DHT22;38032;53.326;6.472;2022-12-08T16:32:37;2.70;99.90
52016;DHT22;38032;53.326;6.472;2022-12-08T16:35:04;2.70;99.90
52016;DHT22;38032;53.326;6.472;2022-12-08T16:37:30;2.60;99.90
52016;DHT22;38032;53.326;6.472;2022-12-08T16:39:56;2.60;99.90
52016;DHT22;38032;53.326;6.472;2022-12-08T16:42:26;2.60;99.90
52016;DHT22;38032;53.326;6.472;2022-12-08T16:47:34;2.50;99.90
52016;DHT22;38032;53.326;6.472;2022-12-08T16:50:05;2.40;99.90
52016;DHT22;38032;53.326;6.472;2022-12-08T16:52:31;2.40;99.90
52016;DHT22;38032;53.326;6.472;2022-12-08T16:54:57;2.40;99.90
52016;DHT22;38032;53.326;6.472;2022-12-08T16:57:23;2.40;99.90
52016;DHT22;38032;53.326;6.472;2022-12-08T16:59:48;2.40;99.90
52016;DHT22;38032;53.326;6.472;2022-12-08T17:02:14;2.40;99.90
52016;DHT22;38032;53.326;6.472;2022-12-08T17:04:40;2.40;99.90
52016;DHT22;38032;53.326;6.472;2022-12-08T17:07:06;2.30;99.90